createdAt,value
2018-09-17T00:00:23.933Z,6.09
2018-09-17T00:06:18.953Z,6.61
2018-09-17T00:12:13.955Z,5.67
2018-09-17T00:18:08.923Z,5.82
2018-09-17T00:24:03.979Z,5.65
2018-09-17T00:29:58.972Z,5.92
2018-09-17T00:35:53.945Z,6.13
2018-09-17T00:41:48.954Z,5.82
2018-09-17T00:47:44.307Z,5.52
2018-09-17T00:53:38.995Z,5.99
2018-09-17T00:59:34.006Z,6.21
2018-09-17T01:05:28.965Z,6.7
2018-09-17T01:11:23.986Z,5.96
2018-09-17T01:17:18.999Z,7.27
2018-09-17T01:23:13.995Z,6.75
2018-09-17T01:29:08.984Z,6.51
2018-09-17T01:35:03.991Z,6.72
2018-09-17T01:40:58.995Z,6.9
2018-09-17T01:46:54.019Z,6.9
2018-09-17T01:52:49.005Z,6.3
2018-09-17T01:58:44.008Z,6.23
2018-09-17T02:04:39.049Z,6.39
2018-09-17T02:10:34.033Z,6.63
2018-09-17T02:16:29.058Z,6.98
2018-09-17T02:22:24.037Z,7.07
2018-09-17T02:28:19.040Z,6.85
2018-09-17T02:34:14.104Z,7.24
2018-09-17T02:40:09.043Z,9.24
2018-09-17T02:46:04.047Z,9.64
2018-09-17T02:51:59.041Z,9.36
2018-09-17T02:57:54.026Z,7.75
2018-09-17T03:03:49.069Z,7.36
2018-09-17T03:09:44.061Z,7.31
2018-09-17T03:15:39.058Z,6.63
2018-09-17T03:21:34.098Z,7.92
2018-09-17T03:27:29.073Z,7.39
2018-09-17T03:33:24.062Z,7.2
2018-09-17T03:39:19.081Z,6.86
2018-09-17T03:45:14.072Z,6.25
2018-09-17T03:51:09.089Z,6.64
2018-09-17T03:57:04.069Z,5.94
2018-09-17T04:02:59.143Z,6.26
2018-09-17T04:08:54.108Z,7.15
2018-09-17T04:14:49.102Z,7.08
2018-09-17T04:20:44.113Z,6.61
2018-09-17T04:26:39.116Z,6.32
2018-09-17T04:32:34.084Z,6.56
2018-09-17T04:38:29.130Z,6.2
2018-09-17T04:44:24.141Z,5.8
2018-09-17T04:50:19.107Z,5.89
2018-09-17T04:56:14.119Z,6.12
2018-09-17T05:02:09.127Z,6.87
2018-09-17T05:08:04.109Z,6.15
2018-09-17T05:13:59.131Z,5.86
2018-09-17T05:19:54.167Z,6.12
2018-09-17T05:25:49.132Z,6.45
2018-09-17T05:31:44.135Z,5.96
2018-09-17T05:37:39.152Z,6.56
2018-09-17T05:43:34.163Z,6.66
2018-09-17T05:49:29.165Z,6.24
2018-09-17T05:55:24.136Z,6.18
2018-09-17T06:01:19.192Z,7.68
2018-09-17T06:07:14.177Z,8.57
2018-09-17T06:13:09.164Z,8.6
2018-09-17T06:19:04.202Z,9.18
2018-09-17T06:24:59.203Z,8.11
2018-09-17T06:30:54.160Z,8.59
2018-09-17T06:36:49.166Z,8.79
2018-09-17T06:42:44.187Z,8.79
2018-09-17T06:48:39.181Z,8.87
2018-09-17T06:54:34.179Z,8.58
2018-09-17T07:00:29.275Z,8.67
2018-09-17T07:06:24.215Z,9.53
2018-09-17T07:12:19.185Z,9.4
2018-09-17T07:18:14.208Z,13.39
2018-09-17T07:24:09.199Z,14.04
2018-09-17T07:30:04.203Z,20.01
2018-09-17T07:35:59.219Z,16.89
2018-09-17T07:41:54.219Z,17.4
2018-09-17T07:47:49.297Z,14.36
2018-09-17T07:53:44.298Z,12.27
2018-09-17T07:59:39.214Z,8.95
2018-09-17T08:05:34.319Z,9.39
2018-09-17T08:11:29.218Z,8.5
2018-09-17T08:17:24.267Z,7.78
2018-09-17T08:23:19.241Z,7.88
2018-09-17T08:29:14.247Z,10.7
2018-09-17T08:35:09.254Z,11.52
2018-09-17T08:41:04.255Z,9.51
2018-09-17T08:46:59.265Z,11.86
2018-09-17T08:52:54.306Z,10.96
2018-09-17T08:58:49.277Z,11.23
2018-09-17T09:04:44.259Z,10.95
2018-09-17T09:10:39.274Z,11.84
2018-09-17T09:16:34.278Z,10.17
2018-09-17T09:22:29.269Z,11.6
2018-09-17T09:28:24.268Z,10.69
2018-09-17T09:34:19.260Z,11.02
2018-09-17T09:40:14.294Z,10.26
2018-09-17T09:46:09.313Z,9.98
2018-09-17T09:52:04.300Z,9.65
2018-09-17T09:57:59.303Z,9.41
2018-09-17T10:03:54.283Z,8.24
2018-09-17T10:09:49.297Z,8.3
2018-09-17T10:15:44.322Z,8.27
2018-09-17T10:21:39.309Z,7.32
2018-09-17T10:27:34.295Z,9.56
2018-09-17T10:33:29.315Z,8.41
2018-09-17T10:39:24.355Z,8.29
2018-09-17T10:45:19.332Z,7.91
2018-09-17T10:51:14.338Z,8.82
2018-09-17T10:57:09.322Z,7.36
2018-09-17T11:03:04.358Z,7.62
2018-09-17T11:08:59.343Z,7.23
2018-09-17T11:14:54.328Z,7.78
2018-09-17T11:20:49.342Z,7.16
2018-09-17T11:26:44.389Z,6.53
2018-09-17T11:32:39.446Z,6.86
2018-09-17T11:38:34.367Z,6.46
2018-09-17T11:44:29.377Z,6.17
2018-09-17T11:50:24.361Z,7.22
2018-09-17T11:56:19.360Z,6.52
2018-09-17T12:02:14.409Z,6.36
2018-09-17T12:08:09.396Z,5.87
2018-09-17T12:14:04.394Z,7.25
2018-09-17T12:19:59.394Z,6.18
2018-09-17T12:25:54.381Z,6.23
2018-09-17T12:31:49.385Z,6.26
2018-09-17T12:37:44.407Z,4.62
2018-09-17T12:43:39.382Z,7.86
2018-09-17T12:49:34.392Z,8.49
2018-09-17T12:55:29.402Z,8.13
2018-09-17T13:01:24.382Z,6.07
2018-09-17T13:07:19.400Z,9.71
2018-09-17T13:13:14.401Z,7.42
2018-09-17T13:19:09.424Z,4.06
2018-09-17T13:25:04.417Z,7.72
2018-09-17T13:30:59.413Z,8.77
2018-09-17T13:36:54.430Z,5.57
2018-09-17T13:42:49.485Z,4.94
2018-09-17T13:48:44.499Z,40.36
2018-09-17T13:54:39.441Z,51.44
2018-09-17T14:00:34.446Z,35.09
2018-09-17T14:06:29.483Z,16.16
2018-09-17T14:12:24.471Z,34.22
2018-09-17T14:18:19.441Z,6.37
2018-09-17T14:24:14.440Z,36.24
2018-09-17T14:30:09.439Z,33.8
2018-09-17T14:36:04.465Z,15.21
2018-09-17T14:41:59.478Z,33.46
2018-09-17T14:47:54.474Z,24.71
2018-09-17T14:53:49.491Z,32.31
2018-09-17T14:59:44.546Z,31.91
2018-09-17T15:05:39.516Z,18.63
2018-09-17T15:11:34.493Z,21.29
2018-09-17T15:17:29.529Z,18.94
2018-09-17T15:23:24.491Z,17.79
2018-09-17T15:29:19.526Z,11.43
2018-09-17T15:35:14.503Z,25.06
2018-09-17T15:41:09.718Z,22.42
2018-09-17T15:47:04.506Z,24.81
2018-09-17T15:52:59.518Z,23.33
2018-09-17T15:58:54.524Z,16.85
2018-09-17T16:04:49.513Z,16.97
2018-09-17T16:10:44.583Z,21.33
2018-09-17T16:16:39.515Z,20.09
2018-09-17T16:22:34.558Z,12.76
2018-09-17T16:28:29.532Z,20.43
2018-09-17T16:34:24.529Z,11.58
2018-09-17T16:40:19.524Z,19.07
2018-09-17T16:46:14.521Z,18.69
2018-09-17T16:52:09.562Z,21.4
2018-09-17T16:58:04.532Z,19.5
2018-09-17T17:03:59.525Z,19.31
2018-09-17T17:09:54.600Z,17.2
2018-09-17T17:15:49.629Z,5.8
2018-09-17T17:21:44.568Z,7.24
2018-09-17T17:27:39.622Z,6.91
2018-09-17T17:33:34.558Z,5.69
2018-09-17T17:39:29.695Z,5.56
2018-09-17T17:45:24.561Z,11.27
2018-09-17T17:51:19.585Z,5.74
2018-09-17T17:57:14.597Z,6.74
2018-09-17T18:03:09.590Z,6.21
2018-09-17T18:09:04.642Z,4.94
2018-09-17T18:14:59.690Z,5.73
2018-09-17T18:20:54.701Z,5.41
2018-09-17T18:26:49.640Z,5.39
2018-09-17T18:32:44.659Z,6.33
2018-09-17T18:38:39.617Z,6.05
2018-09-17T18:44:34.595Z,6.09
2018-09-17T18:50:29.616Z,6.6
2018-09-17T18:56:24.637Z,6.3
2018-09-17T19:02:19.621Z,5.38
2018-09-17T19:08:14.626Z,5.67
2018-09-17T19:14:09.611Z,4.97
2018-09-17T19:20:04.706Z,4.72
2018-09-17T19:25:59.763Z,5.41
2018-09-17T19:31:54.714Z,5.02
2018-09-17T19:37:49.748Z,5.4
2018-09-17T19:43:44.645Z,5.53
2018-09-17T19:49:39.743Z,5.41
2018-09-17T19:55:34.641Z,5.57
2018-09-17T20:01:29.666Z,5.25
2018-09-17T20:13:19.672Z,5.73
2018-09-17T20:13:19.704Z,5.78
2018-09-17T20:19:14.733Z,5.65
2018-09-17T20:25:09.663Z,5.36
2018-09-17T20:31:04.686Z,5.53
2018-09-17T20:36:59.659Z,5.99
2018-09-17T20:42:54.693Z,6.07
2018-09-17T20:48:49.868Z,6.6
2018-09-17T20:54:44.744Z,6.14
2018-09-17T21:00:39.760Z,6.05
2018-09-17T21:06:34.698Z,5.69
2018-09-17T21:12:29.812Z,5.65
2018-09-17T21:18:24.722Z,6.64
2018-09-17T21:24:19.736Z,6.2
2018-09-17T21:30:14.712Z,5.82
2018-09-17T21:36:09.707Z,6.28
2018-09-17T21:42:04.714Z,6.3
2018-09-17T21:47:59.702Z,5.82
2018-09-17T21:53:54.785Z,6.07
2018-09-17T21:59:49.739Z,6.35
2018-09-17T22:05:44.717Z,6.15
2018-09-17T22:11:39.760Z,6.66
2018-09-17T22:17:34.762Z,6.13
2018-09-17T22:23:29.743Z,6.65
2018-09-17T22:29:24.793Z,6.59
2018-09-17T22:35:19.856Z,6.69
2018-09-17T22:41:14.780Z,6.49
2018-09-17T22:47:09.729Z,6.43
2018-09-17T22:53:04.745Z,6.52
2018-09-17T22:58:59.764Z,6.71
2018-09-17T23:04:54.743Z,6.33
2018-09-17T23:10:49.760Z,6.32
2018-09-17T23:16:44.839Z,6
2018-09-17T23:22:39.770Z,5.55
2018-09-17T23:28:34.813Z,6.33
2018-09-17T23:34:29.798Z,6.25
2018-09-17T23:40:24.780Z,5.62
2018-09-17T23:46:19.769Z,5.93
2018-09-17T23:52:14.815Z,5.53
2018-09-17T23:58:09.780Z,5.71
